sensor_id;sensor_type;location;lat;lon;timestamp;P1;durP1;ratioP1;P2;durP2;ratioP2
75535;SDS011;64119;52.070;20.804;2023-07-28T00:01:43;3.40;;;2.40;;
75535;SDS011;64119;52.070;20.804;2023-07-28T00:04:10;2.80;;;2.20;;
75535;SDS011;64119;52.070;20.804;2023-07-28T00:06:38;3.70;;;2.50;;
75535;SDS011;64119;52.070;20.804;2023-07-28T00:09:06;3.00;;;2.20;;
75535;SDS011;64119;52.070;20.804;2023-07-28T00:11:34;6.50;;;3.10;;
75535;SDS011;64119;52.070;20.804;2023-07-28T00:14:02;4.90;;;2.40;;
75535;SDS011;64119;52.070;20.804;2023-07-28T00:16:29;4.70;;;2.80;;
75535;SDS011;64119;52.070;20.804;2023-07-28T00:18:57;3.30;;;2.50;;
75535;SDS011;64119;52.070;20.804;2023-07-28T00:21:26;4.30;;;2.70;;
75535;SDS011;64119;52.070;20.804;2023-07-28T00:23:54;3.40;;;2.60;;
75535;SDS011;64119;52.070;20.804;2023-07-28T00:26:22;3.10;;;2.40;;
75535;SDS011;64119;52.070;20.804;2023-07-28T00:28:49;3.40;;;2.60;;
75535;SDS011;64119;52.070;20.804;2023-07-28T00:31:17;4.30;;;2.60;;
75535;SDS011;64119;52.070;20.804;2023-07-28T00:33:46;3.60;;;2.70;;
75535;SDS011;64119;52.070;20.804;2023-07-28T00:36:14;5.30;;;2.80;;
75535;SDS011;64119;52.070;20.804;2023-07-28T00:38:42;4.00;;;2.70;;
75535;SDS011;64119;52.070;20.804;2023-07-28T00:41:10;3.10;;;2.30;;
75535;SDS011;64119;52.070;20.804;2023-07-28T00:43:38;5.10;;;3.40;;
75535;SDS011;64119;52.070;20.804;2023-07-28T00:46:06;3.30;;;2.70;;
75535;SDS011;64119;52.070;20.804;2023-07-28T00:48:34;4.10;;;2.90;;
75535;SDS011;64119;52.070;20.804;2023-07-28T00:51:02;4.20;;;2.70;;
75535;SDS011;64119;52.070;20.804;2023-07-28T00:53:31;4.60;;;2.80;;
75535;SDS011;64119;52.070;20.804;2023-07-28T00:56:00;6.10;;;3.30;;
75535;SDS011;64119;52.070;20.804;2023-07-28T00:58:29;5.50;;;3.10;;
75535;SDS011;64119;52.070;20.804;2023-07-28T01:00:57;4.30;;;3.10;;
75535;SDS011;64119;52.070;20.804;2023-07-28T01:03:25;4.40;;;3.00;;
75535;SDS011;64119;52.070;20.804;2023-07-28T01:08:49;3.80;;;2.70;;
75535;SDS011;64119;52.070;20.804;2023-07-28T01:11:25;3.70;;;2.70;;
75535;SDS011;64119;52.070;20.804;2023-07-28T01:13:52;4.80;;;2.80;;
75535;SDS011;64119;52.070;20.804;2023-07-28T01:16:20;4.10;;;2.70;;
75535;SDS011;64119;52.070;20.804;2023-07-28T01:18:48;4.10;;;2.90;;
75535;SDS011;64119;52.070;20.804;2023-07-28T01:21:25;4.10;;;2.90;;
75535;SDS011;64119;52.070;20.804;2023-07-28T01:26:38;3.90;;;3.00;;
75535;SDS011;64119;52.070;20.804;2023-07-28T01:31:35;3.50;;;2.50;;
75535;SDS011;64119;52.070;20.804;2023-07-28T01:34:03;3.60;;;2.70;;
75535;SDS011;64119;52.070;20.804;2023-07-28T01:36:31;4.40;;;3.10;;
75535;SDS011;64119;52.070;20.804;2023-07-28T01:38:59;4.90;;;2.70;;
75535;SDS011;64119;52.070;20.804;2023-07-28T01:41:27;5.30;;;3.40;;
75535;SDS011;64119;52.070;20.804;2023-07-28T01:43:55;4.00;;;2.80;;
75535;SDS011;64119;52.070;20.804;2023-07-28T01:46:23;5.00;;;3.10;;
75535;SDS011;64119;52.070;20.804;2023-07-28T01:48:51;4.50;;;3.00;;
75535;SDS011;64119;52.070;20.804;2023-07-28T01:51:19;5.20;;;3.00;;
75535;SDS011;64119;52.070;20.804;2023-07-28T01:53:47;6.00;;;3.40;;
75535;SDS011;64119;52.070;20.804;2023-07-28T01:56:15;3.80;;;2.40;;
75535;SDS011;64119;52.070;20.804;2023-07-28T01:58:42;3.90;;;2.50;;
75535;SDS011;64119;52.070;20.804;2023-07-28T02:01:12;4.10;;;2.80;;
75535;SDS011;64119;52.070;20.804;2023-07-28T02:03:40;5.20;;;2.80;;
75535;SDS011;64119;52.070;20.804;2023-07-28T02:06:08;4.00;;;2.60;;
75535;SDS011;64119;52.070;20.804;2023-07-28T02:08:36;3.30;;;2.50;;
75535;SDS011;64119;52.070;20.804;2023-07-28T02:11:03;3.60;;;2.80;;
75535;SDS011;64119;52.070;20.804;2023-07-28T02:13:33;4.30;;;2.90;;
75535;SDS011;64119;52.070;20.804;2023-07-28T02:16:02;4.20;;;3.10;;
75535;SDS011;64119;52.070;20.804;2023-07-28T02:18:30;3.90;;;2.70;;
75535;SDS011;64119;52.070;20.804;2023-07-28T02:20:57;3.50;;;2.60;;
75535;SDS011;64119;52.070;20.804;2023-07-28T02:23:25;4.20;;;3.50;;
75535;SDS011;64119;52.070;20.804;2023-07-28T02:25:53;4.60;;;3.00;;
75535;SDS011;64119;52.070;20.804;2023-07-28T02:28:21;4.80;;;3.20;;
75535;SDS011;64119;52.070;20.804;2023-07-28T02:30:49;3.50;;;2.60;;
75535;SDS011;64119;52.070;20.804;2023-07-28T02:33:17;4.70;;;3.00;;
75535;SDS011;64119;52.070;20.804;2023-07-28T02:35:45;4.00;;;2.70;;
75535;SDS011;64119;52.070;20.804;2023-07-28T02:38:12;4.40;;;3.00;;
75535;SDS011;64119;52.070;20.804;2023-07-28T02:40:40;4.50;;;3.10;;
75535;SDS011;64119;52.070;20.804;2023-07-28T02:43:08;4.70;;;3.00;;
75535;SDS011;64119;52.070;20.804;2023-07-28T02:45:35;4.60;;;3.40;;
75535;SDS011;64119;52.070;20.804;2023-07-28T02:48:03;6.30;;;3.10;;
75535;SDS011;64119;52.070;20.804;2023-07-28T02:50:31;4.30;;;3.00;;
75535;SDS011;64119;52.070;20.804;2023-07-28T02:52:59;4.40;;;3.50;;
75535;SDS011;64119;52.070;20.804;2023-07-28T02:55:27;5.30;;;3.30;;
75535;SDS011;64119;52.070;20.804;2023-07-28T02:57:55;5.30;;;3.40;;
75535;SDS011;64119;52.070;20.804;2023-07-28T03:00:23;4.50;;;3.50;;
75535;SDS011;64119;52.070;20.804;2023-07-28T03:02:51;4.60;;;3.50;;
75535;SDS011;64119;52.070;20.804;2023-07-28T03:05:19;4.80;;;3.30;;
75535;SDS011;64119;52.070;20.804;2023-07-28T03:08:06;5.40;;;3.20;;
75535;SDS011;64119;52.070;20.804;2023-07-28T03:10:34;4.80;;;3.30;;
75535;SDS011;64119;52.070;20.804;2023-07-28T03:13:02;5.10;;;3.40;;
75535;SDS011;64119;52.070;20.804;2023-07-28T03:15:29;5.30;;;3.60;;
75535;SDS011;64119;52.070;20.804;2023-07-28T03:17:57;4.40;;;3.30;;
75535;SDS011;64119;52.070;20.804;2023-07-28T03:20:25;5.70;;;3.10;;
75535;SDS011;64119;52.070;20.804;2023-07-28T03:22:53;4.60;;;3.60;;
75535;SDS011;64119;52.070;20.804;2023-07-28T03:25:22;4.70;;;3.20;;
75535;SDS011;64119;52.070;20.804;2023-07-28T03:27:50;4.50;;;3.30;;
75535;SDS011;64119;52.070;20.804;2023-07-28T03:30:17;7.90;;;4.50;;
75535;SDS011;64119;52.070;20.804;2023-07-28T03:32:45;3.10;;;2.60;;
75535;SDS011;64119;52.070;20.804;2023-07-28T03:35:13;4.90;;;3.00;;
75535;SDS011;64119;52.070;20.804;2023-07-28T03:37:45;4.60;;;2.80;;
75535;SDS011;64119;52.070;20.804;2023-07-28T03:40:13;6.70;;;3.10;;
75535;SDS011;64119;52.070;20.804;2023-07-28T03:42:49;4.10;;;2.80;;
75535;SDS011;64119;52.070;20.804;2023-07-28T03:45:17;5.80;;;3.30;;
75535;SDS011;64119;52.070;20.804;2023-07-28T03:47:45;4.80;;;3.00;;
75535;SDS011;64119;52.070;20.804;2023-07-28T03:50:13;4.10;;;2.80;;
75535;SDS011;64119;52.070;20.804;2023-07-28T03:52:41;4.20;;;2.70;;
75535;SDS011;64119;52.070;20.804;2023-07-28T03:55:08;4.10;;;3.00;;
75535;SDS011;64119;52.070;20.804;2023-07-28T03:57:36;5.10;;;2.60;;
75535;SDS011;64119;52.070;20.804;2023-07-28T04:00:04;4.20;;;2.80;;
75535;SDS011;64119;52.070;20.804;2023-07-28T04:02:38;4.60;;;2.40;;
75535;SDS011;64119;52.070;20.804;2023-07-28T04:05:06;4.90;;;3.30;;
75535;SDS011;64119;52.070;20.804;2023-07-28T04:07:35;4.20;;;2.90;;
75535;SDS011;64119;52.070;20.804;2023-07-28T04:10:03;3.70;;;2.80;;
75535;SDS011;64119;52.070;20.804;2023-07-28T04:14:59;5.20;;;2.60;;
75535;SDS011;64119;52.070;20.804;2023-07-28T04:17:27;3.90;;;3.10;;
75535;SDS011;64119;52.070;20.804;2023-07-28T04:19:55;4.70;;;2.90;;
75535;SDS011;64119;52.070;20.804;2023-07-28T04:22:23;6.90;;;3.50;;
75535;SDS011;64119;52.070;20.804;2023-07-28T04:24:52;4.50;;;2.60;;
75535;SDS011;64119;52.070;20.804;2023-07-28T04:27:21;6.20;;;2.80;;
75535;SDS011;64119;52.070;20.804;2023-07-28T04:29:49;3.60;;;2.80;;
75535;SDS011;64119;52.070;20.804;2023-07-28T04:32:20;3.30;;;2.70;;
75535;SDS011;64119;52.070;20.804;2023-07-28T04:34:48;6.60;;;2.90;;
75535;SDS011;64119;52.070;20.804;2023-07-28T04:37:22;5.40;;;3.10;;
75535;SDS011;64119;52.070;20.804;2023-07-28T04:39:56;6.50;;;2.90;;
75535;SDS011;64119;52.070;20.804;2023-07-28T04:42:26;3.90;;;2.90;;
75535;SDS011;64119;52.070;20.804;2023-07-28T04:44:54;5.50;;;2.90;;
75535;SDS011;64119;52.070;20.804;2023-07-28T04:47:22;3.80;;;2.80;;
75535;SDS011;64119;52.070;20.804;2023-07-28T04:49:50;4.40;;;2.80;;
75535;SDS011;64119;52.070;20.804;2023-07-28T04:52:44;4.40;;;2.70;;
75535;SDS011;64119;52.070;20.804;2023-07-28T04:55:42;4.00;;;2.60;;
75535;SDS011;64119;52.070;20.804;2023-07-28T04:58:09;4.00;;;2.70;;
75535;SDS011;64119;52.070;20.804;2023-07-28T05:00:49;3.30;;;2.50;;
75535;SDS011;64119;52.070;20.804;2023-07-28T05:03:18;4.20;;;2.80;;
75535;SDS011;64119;52.070;20.804;2023-07-28T05:05:51;6.40;;;2.80;;
75535;SDS011;64119;52.070;20.804;2023-07-28T05:08:18;4.50;;;3.10;;
75535;SDS011;64119;52.070;20.804;2023-07-28T05:10:46;4.60;;;2.90;;
75535;SDS011;64119;52.070;20.804;2023-07-28T05:13:14;4.60;;;2.90;;
75535;SDS011;64119;52.070;20.804;2023-07-28T05:15:50;4.60;;;2.90;;
75535;SDS011;64119;52.070;20.804;2023-07-28T05:18:28;5.20;;;3.20;;
75535;SDS011;64119;52.070;20.804;2023-07-28T05:21:19;7.00;;;2.90;;
75535;SDS011;64119;52.070;20.804;2023-07-28T05:23:47;4.10;;;2.60;;
75535;SDS011;64119;52.070;20.804;2023-07-28T05:26:15;4.00;;;2.60;;
75535;SDS011;64119;52.070;20.804;2023-07-28T05:28:43;3.10;;;2.30;;
75535;SDS011;64119;52.070;20.804;2023-07-28T05:31:10;5.60;;;2.90;;
75535;SDS011;64119;52.070;20.804;2023-07-28T05:33:39;7.10;;;2.70;;
75535;SDS011;64119;52.070;20.804;2023-07-28T05:36:07;4.50;;;2.70;;
75535;SDS011;64119;52.070;20.804;2023-07-28T05:38:35;6.10;;;3.00;;
75535;SDS011;64119;52.070;20.804;2023-07-28T05:41:03;5.40;;;3.00;;
75535;SDS011;64119;52.070;20.804;2023-07-28T05:43:31;5.60;;;2.60;;
75535;SDS011;64119;52.070;20.804;2023-07-28T05:46:00;6.10;;;3.00;;
75535;SDS011;64119;52.070;20.804;2023-07-28T05:48:30;5.30;;;3.20;;
75535;SDS011;64119;52.070;20.804;2023-07-28T05:50:58;4.60;;;3.00;;
75535;SDS011;64119;52.070;20.804;2023-07-28T05:53:26;4.00;;;2.60;;
75535;SDS011;64119;52.070;20.804;2023-07-28T05:55:58;5.50;;;2.60;;
75535;SDS011;64119;52.070;20.804;2023-07-28T05:58:27;5.30;;;3.10;;
75535;SDS011;64119;52.070;20.804;2023-07-28T06:00:55;4.40;;;2.60;;
75535;SDS011;64119;52.070;20.804;2023-07-28T06:03:46;5.10;;;2.50;;
75535;SDS011;64119;52.070;20.804;2023-07-28T06:06:20;3.70;;;2.50;;
75535;SDS011;64119;52.070;20.804;2023-07-28T06:08:48;4.40;;;2.80;;
75535;SDS011;64119;52.070;20.804;2023-07-28T06:11:16;5.60;;;2.80;;
75535;SDS011;64119;52.070;20.804;2023-07-28T06:13:44;7.10;;;3.30;;
75535;SDS011;64119;52.070;20.804;2023-07-28T06:16:14;3.80;;;3.00;;
75535;SDS011;64119;52.070;20.804;2023-07-28T06:18:42;8.50;;;2.70;;
75535;SDS011;64119;52.070;20.804;2023-07-28T06:21:16;4.90;;;2.60;;
75535;SDS011;64119;52.070;20.804;2023-07-28T06:23:44;5.10;;;2.20;;
75535;SDS011;64119;52.070;20.804;2023-07-28T06:26:13;5.00;;;2.80;;
75535;SDS011;64119;52.070;20.804;2023-07-28T06:28:41;6.40;;;2.40;;
75535;SDS011;64119;52.070;20.804;2023-07-28T06:31:09;4.30;;;2.90;;
75535;SDS011;64119;52.070;20.804;2023-07-28T06:33:38;4.80;;;2.70;;
75535;SDS011;64119;52.070;20.804;2023-07-28T06:36:06;3.90;;;2.60;;
75535;SDS011;64119;52.070;20.804;2023-07-28T06:38:34;4.30;;;2.80;;
75535;SDS011;64119;52.070;20.804;2023-07-28T06:41:02;5.20;;;3.30;;
75535;SDS011;64119;52.070;20.804;2023-07-28T06:43:30;6.00;;;3.70;;
75535;SDS011;64119;52.070;20.804;2023-07-28T06:46:01;6.40;;;3.30;;
75535;SDS011;64119;52.070;20.804;2023-07-28T06:48:29;5.90;;;3.40;;
75535;SDS011;64119;52.070;20.804;2023-07-28T06:50:57;5.20;;;3.20;;
75535;SDS011;64119;52.070;20.804;2023-07-28T06:53:25;4.80;;;2.60;;
75535;SDS011;64119;52.070;20.804;2023-07-28T06:55:54;4.40;;;2.90;;
75535;SDS011;64119;52.070;20.804;2023-07-28T06:58:22;4.70;;;3.10;;
75535;SDS011;64119;52.070;20.804;2023-07-28T07:00:50;4.10;;;3.00;;
75535;SDS011;64119;52.070;20.804;2023-07-28T07:03:19;4.80;;;2.70;;
75535;SDS011;64119;52.070;20.804;2023-07-28T07:05:47;3.90;;;2.70;;
75535;SDS011;64119;52.070;20.804;2023-07-28T07:08:15;6.00;;;3.60;;
75535;SDS011;64119;52.070;20.804;2023-07-28T07:10:47;4.80;;;3.70;;
75535;SDS011;64119;52.070;20.804;2023-07-28T07:13:16;4.70;;;3.20;;
75535;SDS011;64119;52.070;20.804;2023-07-28T07:15:45;5.20;;;3.50;;
75535;SDS011;64119;52.070;20.804;2023-07-28T07:18:13;5.00;;;3.40;;
75535;SDS011;64119;52.070;20.804;2023-07-28T07:20:41;5.40;;;3.20;;
75535;SDS011;64119;52.070;20.804;2023-07-28T07:23:09;3.80;;;3.00;;
75535;SDS011;64119;52.070;20.804;2023-07-28T07:25:37;5.00;;;3.10;;
75535;SDS011;64119;52.070;20.804;2023-07-28T07:28:05;4.10;;;3.10;;
75535;SDS011;64119;52.070;20.804;2023-07-28T07:30:33;6.20;;;3.10;;
75535;SDS011;64119;52.070;20.804;2023-07-28T07:33:01;5.50;;;3.10;;
75535;SDS011;64119;52.070;20.804;2023-07-28T07:35:29;4.70;;;3.00;;
75535;SDS011;64119;52.070;20.804;2023-07-28T07:37:57;5.40;;;3.30;;
75535;SDS011;64119;52.070;20.804;2023-07-28T07:40:25;3.90;;;3.00;;
75535;SDS011;64119;52.070;20.804;2023-07-28T07:42:55;6.10;;;3.30;;
75535;SDS011;64119;52.070;20.804;2023-07-28T07:45:23;5.20;;;3.50;;
75535;SDS011;64119;52.070;20.804;2023-07-28T07:47:51;4.90;;;3.10;;
75535;SDS011;64119;52.070;20.804;2023-07-28T07:50:19;5.20;;;3.80;;
75535;SDS011;64119;52.070;20.804;2023-07-28T07:52:47;3.20;;;2.30;;
75535;SDS011;64119;52.070;20.804;2023-07-28T07:55:15;5.00;;;3.90;;
75535;SDS011;64119;52.070;20.804;2023-07-28T07:57:43;4.50;;;3.00;;
75535;SDS011;64119;52.070;20.804;2023-07-28T08:00:11;6.20;;;3.40;;
75535;SDS011;64119;52.070;20.804;2023-07-28T08:02:39;4.80;;;2.90;;
75535;SDS011;64119;52.070;20.804;2023-07-28T08:05:10;4.70;;;3.50;;
75535;SDS011;64119;52.070;20.804;2023-07-28T08:07:38;5.20;;;3.60;;
75535;SDS011;64119;52.070;20.804;2023-07-28T08:10:06;3.60;;;2.60;;
75535;SDS011;64119;52.070;20.804;2023-07-28T08:12:35;4.10;;;3.00;;
75535;SDS011;64119;52.070;20.804;2023-07-28T08:15:02;5.10;;;3.40;;
75535;SDS011;64119;52.070;20.804;2023-07-28T08:17:30;4.60;;;3.00;;
75535;SDS011;64119;52.070;20.804;2023-07-28T08:19:58;4.10;;;2.90;;
75535;SDS011;64119;52.070;20.804;2023-07-28T08:22:26;4.50;;;2.70;;
75535;SDS011;64119;52.070;20.804;2023-07-28T08:24:54;4.90;;;3.20;;
75535;SDS011;64119;52.070;20.804;2023-07-28T08:27:22;4.20;;;2.90;;
75535;SDS011;64119;52.070;20.804;2023-07-28T08:29:51;6.40;;;3.60;;
75535;SDS011;64119;52.070;20.804;2023-07-28T08:32:19;5.30;;;3.40;;
75535;SDS011;64119;52.070;20.804;2023-07-28T08:34:47;5.00;;;3.50;;
75535;SDS011;64119;52.070;20.804;2023-07-28T08:37:15;4.60;;;3.40;;
75535;SDS011;64119;52.070;20.804;2023-07-28T08:39:42;5.70;;;3.40;;
75535;SDS011;64119;52.070;20.804;2023-07-28T08:42:10;4.60;;;3.00;;
75535;SDS011;64119;52.070;20.804;2023-07-28T08:44:38;3.60;;;2.70;;
75535;SDS011;64119;52.070;20.804;2023-07-28T08:47:06;5.20;;;3.30;;
75535;SDS011;64119;52.070;20.804;2023-07-28T08:49:34;4.10;;;3.10;;
75535;SDS011;64119;52.070;20.804;2023-07-28T08:52:04;4.50;;;3.30;;
75535;SDS011;64119;52.070;20.804;2023-07-28T08:54:32;5.50;;;2.90;;
75535;SDS011;64119;52.070;20.804;2023-07-28T08:57:00;5.00;;;3.00;;
75535;SDS011;64119;52.070;20.804;2023-07-28T08:59:28;6.30;;;3.60;;
75535;SDS011;64119;52.070;20.804;2023-07-28T09:01:57;3.60;;;2.60;;
75535;SDS011;64119;52.070;20.804;2023-07-28T09:04:27;4.00;;;2.90;;
75535;SDS011;64119;52.070;20.804;2023-07-28T09:06:55;4.20;;;2.80;;
75535;SDS011;64119;52.070;20.804;2023-07-28T09:09:23;3.50;;;2.80;;
75535;SDS011;64119;52.070;20.804;2023-07-28T09:11:52;4.20;;;2.70;;
75535;SDS011;64119;52.070;20.804;2023-07-28T09:14:21;4.80;;;3.00;;
75535;SDS011;64119;52.070;20.804;2023-07-28T09:16:53;3.80;;;2.90;;
75535;SDS011;64119;52.070;20.804;2023-07-28T09:19:21;4.40;;;2.80;;
75535;SDS011;64119;52.070;20.804;2023-07-28T09:21:59;3.90;;;2.90;;
75535;SDS011;64119;52.070;20.804;2023-07-28T09:24:32;4.20;;;2.70;;
75535;SDS011;64119;52.070;20.804;2023-07-28T09:27:01;4.20;;;3.00;;
75535;SDS011;64119;52.070;20.804;2023-07-28T09:32:05;3.90;;;2.70;;
75535;SDS011;64119;52.070;20.804;2023-07-28T09:34:33;4.70;;;2.90;;
75535;SDS011;64119;52.070;20.804;2023-07-28T09:37:04;3.90;;;3.20;;
75535;SDS011;64119;52.070;20.804;2023-07-28T09:39:34;5.50;;;3.00;;
75535;SDS011;64119;52.070;20.804;2023-07-28T09:42:04;4.50;;;3.40;;
75535;SDS011;64119;52.070;20.804;2023-07-28T09:44:36;5.10;;;2.80;;
75535;SDS011;64119;52.070;20.804;2023-07-28T09:47:04;4.00;;;3.10;;
75535;SDS011;64119;52.070;20.804;2023-07-28T09:49:35;4.30;;;3.00;;
75535;SDS011;64119;52.070;20.804;2023-07-28T09:52:08;5.60;;;3.30;;
75535;SDS011;64119;52.070;20.804;2023-07-28T09:54:40;4.30;;;3.00;;
75535;SDS011;64119;52.070;20.804;2023-07-28T09:57:13;7.60;;;3.20;;
75535;SDS011;64119;52.070;20.804;2023-07-28T09:59:45;5.20;;;2.90;;
75535;SDS011;64119;52.070;20.804;2023-07-28T10:02:14;3.70;;;2.90;;
75535;SDS011;64119;52.070;20.804;2023-07-28T10:04:43;4.20;;;3.10;;
75535;SDS011;64119;52.070;20.804;2023-07-28T10:07:11;4.70;;;3.50;;
75535;SDS011;64119;52.070;20.804;2023-07-28T10:09:40;5.90;;;3.20;;
75535;SDS011;64119;52.070;20.804;2023-07-28T10:12:17;3.80;;;2.50;;
75535;SDS011;64119;52.070;20.804;2023-07-28T10:14:45;5.40;;;3.20;;
75535;SDS011;64119;52.070;20.804;2023-07-28T10:17:17;4.00;;;2.80;;
75535;SDS011;64119;52.070;20.804;2023-07-28T10:19:45;4.90;;;3.10;;
75535;SDS011;64119;52.070;20.804;2023-07-28T10:22:13;5.40;;;2.90;;
75535;SDS011;64119;52.070;20.804;2023-07-28T10:27:34;4.60;;;3.10;;
75535;SDS011;64119;52.070;20.804;2023-07-28T10:30:09;5.50;;;4.10;;
75535;SDS011;64119;52.070;20.804;2023-07-28T10:32:42;7.20;;;4.20;;
75535;SDS011;64119;52.070;20.804;2023-07-28T10:37:43;5.00;;;3.60;;
75535;SDS011;64119;52.070;20.804;2023-07-28T10:43:03;5.00;;;3.10;;
75535;SDS011;64119;52.070;20.804;2023-07-28T10:48:00;6.30;;;3.40;;
75535;SDS011;64119;52.070;20.804;2023-07-28T10:50:29;4.80;;;3.30;;
75535;SDS011;64119;52.070;20.804;2023-07-28T10:52:58;4.80;;;3.20;;
75535;SDS011;64119;52.070;20.804;2023-07-28T10:55:27;5.20;;;3.40;;
75535;SDS011;64119;52.070;20.804;2023-07-28T10:57:55;4.20;;;2.70;;
75535;SDS011;64119;52.070;20.804;2023-07-28T11:00:26;4.00;;;2.70;;
75535;SDS011;64119;52.070;20.804;2023-07-28T11:02:54;4.80;;;2.80;;
75535;SDS011;64119;52.070;20.804;2023-07-28T11:05:23;3.30;;;2.10;;
75535;SDS011;64119;52.070;20.804;2023-07-28T11:07:52;4.10;;;2.40;;
75535;SDS011;64119;52.070;20.804;2023-07-28T11:10:22;3.50;;;1.90;;
75535;SDS011;64119;52.070;20.804;2023-07-28T11:12:51;2.70;;;1.70;;
75535;SDS011;64119;52.070;20.804;2023-07-28T11:15:20;2.90;;;1.80;;
75535;SDS011;64119;52.070;20.804;2023-07-28T11:17:48;2.30;;;1.50;;
75535;SDS011;64119;52.070;20.804;2023-07-28T11:20:22;2.80;;;1.50;;
75535;SDS011;64119;52.070;20.804;2023-07-28T11:22:55;2.20;;;1.30;;
75535;SDS011;64119;52.070;20.804;2023-07-28T11:25:33;1.60;;;1.20;;
75535;SDS011;64119;52.070;20.804;2023-07-28T11:28:02;2.30;;;1.20;;
75535;SDS011;64119;52.070;20.804;2023-07-28T11:30:33;2.20;;;1.40;;
75535;SDS011;64119;52.070;20.804;2023-07-28T11:33:08;2.60;;;1.10;;
75535;SDS011;64119;52.070;20.804;2023-07-28T11:35:38;1.50;;;1.00;;
75535;SDS011;64119;52.070;20.804;2023-07-28T11:38:08;3.90;;;1.20;;
75535;SDS011;64119;52.070;20.804;2023-07-28T11:40:36;2.10;;;1.20;;
75535;SDS011;64119;52.070;20.804;2023-07-28T11:43:05;2.10;;;1.20;;
75535;SDS011;64119;52.070;20.804;2023-07-28T11:45:33;2.00;;;1.20;;
75535;SDS011;64119;52.070;20.804;2023-07-28T11:50:29;1.70;;;1.20;;
75535;SDS011;64119;52.070;20.804;2023-07-28T11:53:01;3.10;;;1.10;;
75535;SDS011;64119;52.070;20.804;2023-07-28T11:55:30;2.00;;;1.20;;
75535;SDS011;64119;52.070;20.804;2023-07-28T11:57:58;3.10;;;1.30;;
75535;SDS011;64119;52.070;20.804;2023-07-28T12:00:33;2.20;;;1.30;;
75535;SDS011;64119;52.070;20.804;2023-07-28T12:03:06;2.10;;;1.00;;
75535;SDS011;64119;52.070;20.804;2023-07-28T12:05:41;2.10;;;1.20;;
75535;SDS011;64119;52.070;20.804;2023-07-28T12:08:40;2.40;;;1.10;;
75535;SDS011;64119;52.070;20.804;2023-07-28T12:11:13;2.50;;;1.30;;
75535;SDS011;64119;52.070;20.804;2023-07-28T12:13:48;2.40;;;1.10;;
75535;SDS011;64119;52.070;20.804;2023-07-28T12:16:38;2.10;;;1.30;;
75535;SDS011;64119;52.070;20.804;2023-07-28T12:19:13;1.40;;;1.10;;
75535;SDS011;64119;52.070;20.804;2023-07-28T12:21:42;2.90;;;1.10;;
75535;SDS011;64119;52.070;20.804;2023-07-28T12:24:10;1.60;;;1.00;;
75535;SDS011;64119;52.070;20.804;2023-07-28T12:26:38;1.90;;;1.10;;
75535;SDS011;64119;52.070;20.804;2023-07-28T12:29:07;2.20;;;0.90;;
75535;SDS011;64119;52.070;20.804;2023-07-28T12:31:38;1.40;;;0.90;;
75535;SDS011;64119;52.070;20.804;2023-07-28T12:34:09;2.10;;;0.90;;
75535;SDS011;64119;52.070;20.804;2023-07-28T12:36:37;1.80;;;1.00;;
75535;SDS011;64119;52.070;20.804;2023-07-28T12:39:08;1.30;;;1.00;;
75535;SDS011;64119;52.070;20.804;2023-07-28T12:41:39;1.80;;;0.70;;
75535;SDS011;64119;52.070;20.804;2023-07-28T12:44:09;1.50;;;0.70;;
75535;SDS011;64119;52.070;20.804;2023-07-28T12:46:41;1.50;;;0.60;;
75535;SDS011;64119;52.070;20.804;2023-07-28T12:49:09;1.10;;;0.70;;
75535;SDS011;64119;52.070;20.804;2023-07-28T12:51:48;2.60;;;0.90;;
75535;SDS011;64119;52.070;20.804;2023-07-28T12:54:18;1.80;;;0.90;;
75535;SDS011;64119;52.070;20.804;2023-07-28T12:56:47;1.60;;;1.00;;
75535;SDS011;64119;52.070;20.804;2023-07-28T12:59:36;1.40;;;0.80;;
75535;SDS011;64119;52.070;20.804;2023-07-28T13:02:24;1.30;;;0.70;;
75535;SDS011;64119;52.070;20.804;2023-07-28T13:04:51;1.30;;;0.70;;
75535;SDS011;64119;52.070;20.804;2023-07-28T13:07:19;2.40;;;0.80;;
75535;SDS011;64119;52.070;20.804;2023-07-28T13:09:51;1.70;;;1.10;;
75535;SDS011;64119;52.070;20.804;2023-07-28T13:12:19;1.50;;;0.90;;
75535;SDS011;64119;52.070;20.804;2023-07-28T13:14:49;1.40;;;0.80;;
75535;SDS011;64119;52.070;20.804;2023-07-28T13:17:17;1.50;;;1.00;;
75535;SDS011;64119;52.070;20.804;2023-07-28T13:19:45;2.40;;;1.00;;
75535;SDS011;64119;52.070;20.804;2023-07-28T13:22:14;3.40;;;1.10;;
75535;SDS011;64119;52.070;20.804;2023-07-28T13:24:41;1.40;;;1.00;;
75535;SDS011;64119;52.070;20.804;2023-07-28T13:27:11;2.50;;;1.00;;
75535;SDS011;64119;52.070;20.804;2023-07-28T13:29:39;1.90;;;1.00;;
75535;SDS011;64119;52.070;20.804;2023-07-28T13:32:16;1.80;;;0.90;;
75535;SDS011;64119;52.070;20.804;2023-07-28T13:34:46;1.80;;;1.10;;
75535;SDS011;64119;52.070;20.804;2023-07-28T13:37:14;1.50;;;0.90;;
75535;SDS011;64119;52.070;20.804;2023-07-28T13:39:42;2.10;;;1.00;;
75535;SDS011;64119;52.070;20.804;2023-07-28T13:42:10;2.30;;;1.00;;
75535;SDS011;64119;52.070;20.804;2023-07-28T13:44:39;1.40;;;0.80;;
75535;SDS011;64119;52.070;20.804;2023-07-28T13:47:23;1.50;;;0.90;;
75535;SDS011;64119;52.070;20.804;2023-07-28T13:49:52;1.70;;;0.90;;
75535;SDS011;64119;52.070;20.804;2023-07-28T13:52:19;2.50;;;1.00;;
75535;SDS011;64119;52.070;20.804;2023-07-28T13:54:49;1.10;;;0.70;;
75535;SDS011;64119;52.070;20.804;2023-07-28T13:57:20;2.30;;;0.80;;
75535;SDS011;64119;52.070;20.804;2023-07-28T13:59:47;1.50;;;0.80;;
75535;SDS011;64119;52.070;20.804;2023-07-28T14:02:18;1.30;;;0.80;;
75535;SDS011;64119;52.070;20.804;2023-07-28T14:04:46;1.80;;;0.80;;
75535;SDS011;64119;52.070;20.804;2023-07-28T14:07:14;1.90;;;0.70;;
75535;SDS011;64119;52.070;20.804;2023-07-28T14:09:42;1.10;;;0.80;;
75535;SDS011;64119;52.070;20.804;2023-07-28T14:12:10;2.00;;;0.90;;
75535;SDS011;64119;52.070;20.804;2023-07-28T14:14:37;2.10;;;1.10;;
75535;SDS011;64119;52.070;20.804;2023-07-28T14:17:05;1.80;;;1.00;;
75535;SDS011;64119;52.070;20.804;2023-07-28T14:19:33;1.30;;;1.10;;
75535;SDS011;64119;52.070;20.804;2023-07-28T14:22:01;1.80;;;1.00;;
75535;SDS011;64119;52.070;20.804;2023-07-28T14:24:28;2.60;;;0.90;;
75535;SDS011;64119;52.070;20.804;2023-07-28T14:26:56;1.90;;;1.00;;
75535;SDS011;64119;52.070;20.804;2023-07-28T14:29:27;1.80;;;0.90;;
75535;SDS011;64119;52.070;20.804;2023-07-28T14:31:55;2.60;;;1.10;;
75535;SDS011;64119;52.070;20.804;2023-07-28T14:34:24;2.00;;;1.00;;
75535;SDS011;64119;52.070;20.804;2023-07-28T14:36:51;2.00;;;1.00;;
75535;SDS011;64119;52.070;20.804;2023-07-28T14:39:19;1.30;;;1.00;;
75535;SDS011;64119;52.070;20.804;2023-07-28T14:41:47;1.10;;;1.00;;
75535;SDS011;64119;52.070;20.804;2023-07-28T14:44:14;2.30;;;1.20;;
75535;SDS011;64119;52.070;20.804;2023-07-28T14:46:44;2.10;;;1.10;;
75535;SDS011;64119;52.070;20.804;2023-07-28T14:49:14;1.50;;;1.10;;
75535;SDS011;64119;52.070;20.804;2023-07-28T14:51:42;1.50;;;1.00;;
75535;SDS011;64119;52.070;20.804;2023-07-28T14:54:10;2.30;;;1.20;;
75535;SDS011;64119;52.070;20.804;2023-07-28T14:56:38;1.60;;;1.10;;
75535;SDS011;64119;52.070;20.804;2023-07-28T14:59:06;1.80;;;1.10;;
75535;SDS011;64119;52.070;20.804;2023-07-28T15:01:34;1.50;;;1.30;;
75535;SDS011;64119;52.070;20.804;2023-07-28T15:04:02;1.70;;;1.20;;
75535;SDS011;64119;52.070;20.804;2023-07-28T15:06:33;2.00;;;1.30;;
75535;SDS011;64119;52.070;20.804;2023-07-28T15:09:00;1.60;;;1.20;;
75535;SDS011;64119;52.070;20.804;2023-07-28T15:11:28;1.50;;;1.20;;
75535;SDS011;64119;52.070;20.804;2023-07-28T15:13:56;1.70;;;1.20;;